Time;durP1;ratioP1;P1;durP2;ratioP2;P2;SDS_P1;SDS_P2;PMS_P1;PMS_P2;Temp;Humidity;BMP_temperature;BMP_pressure;BME280_temperature;BME280_humidity;BME280_pressure;Samples;Min_cycle;Max_cycle;Signal;HPM_P1;HPM_P2
2021/06/24 00:00:54;;;;;;;4.17;2.33;;;;;;;23.35;47.42;102118.56;5032936;28;20216;-73
2021/06/24 00:03:23;;;;;;;2.47;2.00;;;;;;;23.35;46.87;102106.38;5031646;28;20342;-72
2021/06/24 00:05:49;;;;;;;5.43;2.40;;;;;;;23.34;46.94;102120.31;5032807;28;20189;-72
2021/06/24 00:08:14;;;;;;;4.20;2.23;;;;;;;23.33;46.85;102129.03;5032635;28;20210;-73
2021/06/24 00:10:42;;;;;;;4.30;2.40;;;;;;;23.33;47.06;102134.28;5031418;28;20292;-71
2021/06/24 00:13:08;;;;;;;2.90;1.97;;;;;;;23.33;47.18;102125.56;5032799;28;20409;-73
2021/06/24 00:15:34;;;;;;;2.90;2.20;;;;;;;23.33;47.08;102123.81;5032994;28;20210;-73
2021/06/24 00:18:00;;;;;;;3.20;2.37;;;;;;;23.32;46.90;102132.56;5033192;28;20175;-72
2021/06/24 00:20:26;;;;;;;2.33;2.00;;;;;;;23.33;47.20;102143.84;5032709;28;20280;-72
2021/06/24 00:22:51;;;;;;;4.00;2.10;;;;;;;23.32;46.92;102148.25;5032789;28;20257;-73
2021/06/24 00:25:17;;;;;;;5.07;2.37;;;;;;;23.33;46.87;102138.63;5032604;28;20206;-74
2021/06/24 00:27:42;;;;;;;5.10;2.50;;;;;;;23.32;47.17;102127.31;5032871;28;20403;-72
2021/06/24 00:30:08;;;;;;;4.03;2.33;;;;;;;23.32;47.48;102131.69;5031072;28;20241;-72
2021/06/24 00:32:34;;;;;;;3.53;2.40;;;;;;;23.30;47.06;102139.53;5032128;28;20213;-73
2021/06/24 00:35:01;;;;;;;3.37;2.27;;;;;;;23.31;47.15;102143.03;5031438;28;20174;-73
2021/06/24 00:37:27;;;;;;;6.60;2.13;;;;;;;23.30;46.99;102142.16;5032453;28;20569;-73
2021/06/24 00:39:53;;;;;;;5.63;2.50;;;;;;;23.31;47.00;102145.63;5032281;28;20202;-73
2021/06/24 00:42:18;;;;;;;4.77;2.40;;;;;;;23.29;47.11;102150.88;5031851;28;20558;-72
2021/06/24 00:44:43;;;;;;;4.13;2.03;;;;;;;23.30;47.26;102162.22;5032360;28;20202;-74
2021/06/24 00:47:09;;;;;;;5.53;2.20;;;;;;;23.29;46.93;102184.88;5032513;28;20197;-73
2021/06/24 00:49:34;;;;;;;4.00;2.50;;;;;;;23.29;47.07;102184.88;5030664;28;20206;-73
2021/06/24 00:51:59;;;;;;;3.87;2.30;;;;;;;23.29;47.02;102174.41;5030929;28;20225;-73
2021/06/24 00:54:25;;;;;;;5.20;2.40;;;;;;;23.29;47.40;102171.81;5031863;28;20186;-73
2021/06/24 00:56:50;;;;;;;4.13;2.17;;;;;;;23.28;47.22;102174.44;5032053;28;20248;-73
2021/06/24 00:59:16;;;;;;;2.30;2.00;;;;;;;23.27;47.19;102173.59;5031795;28;20175;-73
2021/06/24 01:01:41;;;;;;;4.30;2.33;;;;;;;23.27;47.04;102170.09;5030276;28;20194;-73
2021/06/24 01:04:06;;;;;;;4.37;2.03;;;;;;;23.27;47.21;102164.84;5030596;28;20211;-72
2021/06/24 01:06:33;;;;;;;5.27;2.30;;;;;;;23.26;47.24;102168.38;5030593;28;20193;-73
2021/06/24 01:08:58;;;;;;;3.03;2.00;;;;;;;23.26;47.01;102176.22;5031853;28;20206;-73
2021/06/24 01:11:23;;;;;;;3.77;2.30;;;;;;;23.26;47.15;102166.63;5030949;28;20249;-73
2021/06/24 01:13:49;;;;;;;4.23;2.20;;;;;;;23.26;47.44;102160.53;5036724;28;20225;-73
2021/06/24 01:16:15;;;;;;;2.53;2.00;;;;;;;23.25;47.12;102164.88;5032051;28;20643;-73
2021/06/24 01:18:45;;;;;;;3.67;2.27;;;;;;;23.25;47.08;102156.19;5031658;28;20597;-64
2021/06/24 01:21:10;;;;;;;3.43;2.20;;;;;;;23.25;47.18;102156.19;5030192;28;20216;-72
2021/06/24 01:23:38;;;;;;;3.83;2.10;;;;;;;23.24;47.12;102144.84;5031663;28;20659;-73
2021/06/24 01:26:03;;;;;;;4.27;2.10;;;;;;;23.23;47.17;102131.78;5030206;28;20174;-72
2021/06/24 01:28:29;;;;;;;3.10;2.07;;;;;;;23.23;47.16;102123.94;5031600;28;20201;-73
2021/06/24 01:30:54;;;;;;;3.67;1.93;;;;;;;23.22;47.05;102122.22;5031506;28;20235;-72
2021/06/24 01:33:19;;;;;;;2.10;1.90;;;;;;;23.22;47.15;102119.59;5031446;28;20265;-72
2021/06/24 01:35:44;;;;;;;2.60;1.93;;;;;;;23.22;47.35;102117.00;5030273;28;20182;-72
2021/06/24 01:38:11;;;;;;;3.23;2.53;;;;;;;23.22;47.42;102112.63;5030310;28;20320;-73
2021/06/24 01:40:37;;;;;;;4.17;2.10;;;;;;;23.20;47.46;102119.63;5029668;28;20226;-73
2021/06/24 01:43:03;;;;;;;4.07;2.43;;;;;;;23.21;47.48;102118.72;5030935;28;20221;-72
2021/06/24 01:45:28;;;;;;;5.33;2.27;;;;;;;23.21;47.15;102118.72;5031343;28;20265;-73
2021/06/24 01:47:54;;;;;;;4.63;2.40;;;;;;;23.21;47.23;102123.94;5031202;28;20190;-72
2021/06/24 01:50:20;;;;;;;3.77;2.00;;;;;;;23.22;47.15;102119.59;5030637;28;20206;-72
2021/06/24 01:52:47;;;;;;;3.77;2.20;;;;;;;23.21;47.10;102115.25;5015284;28;20210;-73
2021/06/24 01:55:13;;;;;;;3.43;2.10;;;;;;;23.19;47.52;102115.28;5031032;28;20194;-73
2021/06/24 01:57:39;;;;;;;4.37;2.13;;;;;;;23.20;46.93;102114.38;5029614;28;20283;-73
2021/06/24 02:00:13;;;;;;;2.93;2.10;;;;;;;23.20;47.38;102106.53;5030931;28;20237;-73
2021/06/24 02:02:40;;;;;;;5.10;2.33;;;;;;;23.19;47.09;102104.81;5029223;28;20281;-73
2021/06/24 02:05:07;;;;;;;3.30;2.30;;;;;;;23.18;47.14;102097.84;5031071;28;20189;-72
2021/06/24 02:07:33;;;;;;;3.70;1.90;;;;;;;23.18;47.39;102099.56;5030805;28;20187;-73
2021/06/24 02:09:58;;;;;;;5.13;2.03;;;;;;;23.19;47.19;102107.44;5029068;28;20629;-72
2021/06/24 02:12:23;;;;;;;4.33;2.10;;;;;;;23.17;47.02;102098.72;5030372;28;20696;-72
2021/06/24 02:14:48;;;;;;;4.90;2.10;;;;;;;23.17;47.31;102096.13;5030052;28;20190;-74
2021/06/24 02:17:14;;;;;;;5.17;2.47;;;;;;;23.18;47.55;102089.13;5030585;28;20194;-74
2021/06/24 02:19:39;;;;;;;3.37;2.27;;;;;;;23.17;47.47;102084.78;5030338;28;20198;-73
2021/06/24 02:22:05;;;;;;;3.20;2.07;;;;;;;23.17;47.29;102085.66;5030769;28;20205;-73
2021/06/24 02:24:30;;;;;;;3.33;2.20;;;;;;;23.15;47.23;102081.31;5030024;28;20195;-72
2021/06/24 02:26:55;;;;;;;5.27;2.23;;;;;;;23.16;47.40;102077.81;5030414;28;20198;-73
2021/06/24 02:29:20;;;;;;;3.70;2.00;;;;;;;23.16;47.40;102076.06;5028895;28;20593;-73
2021/06/24 02:31:46;;;;;;;2.93;2.07;;;;;;;23.15;47.40;102087.41;5028919;28;20194;-73
2021/06/24 02:34:13;;;;;;;4.20;2.10;;;;;;;23.15;47.50;102090.00;5030205;28;20195;-73
2021/06/24 02:36:38;;;;;;;2.63;1.93;;;;;;;23.15;47.36;102094.41;5028886;28;20247;-73
2021/06/24 02:39:04;;;;;;;3.73;2.30;;;;;;;23.14;47.59;102103.97;5029957;28;20639;-73
2021/06/24 02:41:33;;;;;;;5.03;2.93;;;;;;;23.15;47.59;102100.47;5030318;28;20257;-71
2021/06/24 02:43:59;;;;;;;2.17;1.87;;;;;;;23.15;47.08;102107.47;5030392;28;20757;-72
2021/06/24 02:46:24;;;;;;;4.73;2.20;;;;;;;23.14;47.54;102119.66;5029016;28;20182;-73
2021/06/24 02:48:49;;;;;;;3.30;2.00;;;;;;;23.14;47.60;102111.81;5029711;28;20202;-72
2021/06/24 02:51:15;;;;;;;4.47;2.40;;;;;;;23.13;47.09;102119.69;5030256;28;20252;-71
2021/06/24 02:53:40;;;;;;;4.30;1.90;;;;;;;23.15;47.44;102115.31;5028598;28;20224;-73
2021/06/24 02:56:05;;;;;;;4.17;2.37;;;;;;;23.15;46.90;102110.09;5030091;28;20270;-73
2021/06/24 02:58:30;;;;;;;3.47;2.20;;;;;;;23.15;47.34;102110.09;5030044;28;20182;-73
2021/06/24 03:00:56;;;;;;;5.10;2.73;;;;;;;23.13;47.45;102104.88;5027696;28;20687;-72
2021/06/24 03:03:21;;;;;;;3.80;2.30;;;;;;;23.10;47.88;102102.28;5028809;28;20182;-73
2021/06/24 03:05:46;;;;;;;4.80;2.33;;;;;;;23.07;47.44;102098.84;5029824;28;20206;-73
2021/06/24 03:08:11;;;;;;;3.53;2.23;;;;;;;23.05;47.49;102100.59;5028288;28;20217;-73
2021/06/24 03:10:37;;;;;;;3.23;2.50;;;;;;;23.02;47.55;102092.81;5028130;28;20238;-73
2021/06/24 03:13:02;;;;;;;3.03;2.17;;;;;;;22.98;47.77;102094.56;5034564;28;20174;-73
2021/06/24 03:15:31;;;;;;;5.87;2.80;;;;;;;22.97;47.55;102086.78;5030235;28;20373;-73
2021/06/24 03:17:56;;;;;;;2.30;1.90;;;;;;;22.96;47.71;102082.41;5030082;28;20178;-73
2021/06/24 03:20:27;;;;;;;5.40;2.10;;;;;;;22.96;47.81;102079.78;5029582;28;20194;-73
2021/06/24 03:22:56;;;;;;;4.07;2.43;;;;;;;22.96;47.81;102072.81;5028933;28;20194;-72
2021/06/24 03:25:21;;;;;;;4.07;2.30;;;;;;;22.98;47.55;102081.50;5032221;28;20174;-73
2021/06/24 03:27:46;;;;;;;3.93;2.07;;;;;;;22.99;47.22;102082.38;5033889;28;20541;-73
2021/06/24 03:30:13;;;;;;;4.13;2.40;;;;;;;22.96;47.72;102080.66;5032321;28;20198;-72
2021/06/24 03:32:38;;;;;;;3.77;2.20;;;;;;;22.94;47.73;102076.34;5033883;28;20832;-73
2021/06/24 03:35:04;;;;;;;4.20;2.57;;;;;;;22.90;47.68;102079.88;5034140;28;20182;-73
2021/06/24 03:37:29;;;;;;;4.00;2.60;;;;;;;22.89;47.31;102084.25;5033510;28;20205;-73
2021/06/24 03:39:55;;;;;;;4.73;2.60;;;;;;;22.86;47.67;102086.00;5032091;28;20655;-72
2021/06/24 03:42:20;;;;;;;5.77;2.73;;;;;;;22.81;48.07;102086.06;5033688;28;20205;-72
2021/06/24 03:44:45;;;;;;;4.20;2.87;;;;;;;22.81;47.90;102091.28;5032283;28;20182;-72
2021/06/24 03:47:10;;;;;;;4.77;2.30;;;;;;;22.82;47.97;102093.03;5033777;28;20232;-71
2021/06/24 03:49:36;;;;;;;4.87;2.50;;;;;;;22.84;47.60;102098.22;5033166;28;20871;-73
2021/06/24 03:52:01;;;;;;;5.27;2.67;;;;;;;22.81;47.57;102100.88;5033515;28;20236;-71
2021/06/24 03:54:26;;;;;;;5.13;3.00;;;;;;;22.78;47.75;102107.00;5032611;28;20178;-71
2021/06/24 03:56:51;;;;;;;4.53;3.00;;;;;;;22.78;47.72;102101.78;5033532;28;20201;-71
2021/06/24 03:59:17;;;;;;;4.50;2.67;;;;;;;22.75;47.77;102098.31;5033228;28;20643;-72
2021/06/24 04:01:42;;;;;;;5.60;2.67;;;;;;;22.73;47.81;102095.72;5032991;28;20247;-72
2021/06/24 04:04:11;;;;;;;5.17;2.83;;;;;;;22.71;47.16;102101.84;5031906;28;20187;-71
2021/06/24 04:06:37;;;;;;;4.50;2.57;;;;;;;22.67;47.63;102093.19;5032936;28;20722;-73
2021/06/24 04:09:04;;;;;;;8.13;3.30;;;;;;;22.63;47.77;102099.31;5032993;28;20281;-72
2021/06/24 04:11:29;;;;;;;6.73;3.17;;;;;;;22.56;47.97;102088.94;5024972;28;20660;-72
2021/06/24 04:13:55;;;;;;;4.97;2.40;;;;;;;22.57;48.14;102104.59;5030053;28;20175;-72
2021/06/24 04:16:20;;;;;;;5.37;2.80;;;;;;;22.58;47.96;102097.63;5031757;28;20206;-72
2021/06/24 04:18:45;;;;;;;6.83;3.37;;;;;;;22.60;47.67;102098.50;5031531;28;20175;-73
2021/06/24 04:21:10;;;;;;;4.27;3.23;;;;;;;22.58;48.22;102100.22;5032708;28;20726;-72
2021/06/24 04:23:36;;;;;;;4.23;2.87;;;;;;;22.54;48.06;102104.63;5032891;28;20182;-73
2021/06/24 04:26:01;;;;;;;5.13;2.97;;;;;;;22.55;47.88;102100.28;5032800;28;20209;-73
2021/06/24 04:28:26;;;;;;;3.93;2.37;;;;;;;22.58;47.76;102092.41;5031392;28;20297;-72
2021/06/24 04:30:51;;;;;;;4.17;2.80;;;;;;;22.57;47.88;102102.00;5032414;28;20671;-72
2021/06/24 04:33:17;;;;;;;5.13;2.30;;;;;;;22.59;47.77;102097.59;5032647;28;20189;-72
2021/06/24 04:35:42;;;;;;;6.73;3.23;;;;;;;22.55;47.69;102095.91;5032017;28;20178;-72
2021/06/24 04:38:07;;;;;;;6.83;2.70;;;;;;;22.52;47.80;102085.50;5032202;28;20190;-72
2021/06/24 04:40:33;;;;;;;5.13;2.50;;;;;;;22.51;47.70;102093.34;5032302;28;20205;-73
2021/06/24 04:42:58;;;;;;;4.90;2.93;;;;;;;22.50;47.82;102089.88;5031185;28;20174;-72
2021/06/24 04:45:23;;;;;;;5.57;2.83;;;;;;;22.51;47.87;102093.34;5032580;28;20194;-72
2021/06/24 04:47:49;;;;;;;5.40;3.00;;;;;;;22.48;47.72;102091.63;5032630;28;20216;-71
2021/06/24 04:50:14;;;;;;;4.67;2.77;;;;;;;22.47;47.65;102091.66;5030683;28;20691;-72
2021/06/24 04:52:40;;;;;;;5.50;2.60;;;;;;;22.46;47.78;102082.94;5032284;28;20202;-72
2021/06/24 04:55:05;;;;;;;5.17;2.90;;;;;;;22.48;47.67;102093.38;5032407;28;20186;-72
2021/06/24 04:57:31;;;;;;;5.63;2.97;;;;;;;22.48;47.92;102089.03;5032334;28;20182;-72
2021/06/24 04:59:56;;;;;;;4.90;2.67;;;;;;;22.49;47.76;102088.13;5031922;28;20195;-72
2021/06/24 05:02:21;;;;;;;4.33;2.80;;;;;;;22.48;47.64;102080.31;5032309;28;20182;-72
2021/06/24 05:04:47;;;;;;;6.40;3.10;;;;;;;22.45;47.92;102089.03;5031013;28;20178;-71
2021/06/24 05:07:12;;;;;;;7.00;3.10;;;;;;;22.41;47.88;102087.28;5031557;28;20255;-72
2021/06/24 05:09:41;;;;;;;5.40;2.83;;;;;;;22.39;47.83;102087.31;5035724;28;20280;-71
2021/06/24 05:12:09;;;;;;;4.43;2.60;;;;;;;22.41;47.83;102082.06;5031434;28;20796;-72
2021/06/24 05:14:34;;;;;;;5.10;2.77;;;;;;;22.39;47.98;102078.63;5032106;28;20170;-71
2021/06/24 05:17:00;;;;;;;3.63;2.67;;;;;;;22.38;48.02;102082.09;5030801;28;20177;-72
2021/06/24 05:19:27;;;;;;;4.37;2.53;;;;;;;22.39;47.59;102076.88;5030183;28;20192;-73
2021/06/24 05:21:52;;;;;;;4.27;2.47;;;;;;;22.41;47.73;102076.00;5031535;28;20273;-72
2021/06/24 05:24:17;;;;;;;7.23;2.90;;;;;;;22.46;48.09;102074.25;5030495;28;20675;-72
2021/06/24 05:26:43;;;;;;;6.07;2.90;;;;;;;22.48;48.21;102073.34;5030385;28;20182;-72
2021/06/24 05:29:08;;;;;;;7.47;2.97;;;;;;;22.48;48.25;102072.47;5030202;28;20201;-72
2021/06/24 05:31:33;;;;;;;5.53;2.70;;;;;;;22.47;48.30;102073.38;5031701;28;20718;-72
2021/06/24 05:33:59;;;;;;;5.20;2.70;;;;;;;22.48;48.34;102068.13;5031539;28;20178;-72
2021/06/24 05:36:24;;;;;;;6.43;2.63;;;;;;;22.50;48.41;102065.47;5031332;28;20182;-72
2021/06/24 05:38:49;;;;;;;8.40;3.27;;;;;;;22.47;48.21;102074.22;5031223;28;20171;-73
2021/06/24 05:41:15;;;;;;;8.40;2.90;;;;;;;22.48;48.51;102070.75;5031372;28;20213;-72
2021/06/24 05:43:40;;;;;;;5.73;2.43;;;;;;;22.53;48.43;102070.69;5031461;28;20189;-71
2021/06/24 05:46:05;;;;;;;6.83;2.50;;;;;;;22.54;48.33;102067.19;5031494;28;20181;-71
2021/06/24 05:48:33;;;;;;;4.60;2.53;;;;;;;22.57;48.15;102072.38;5029893;28;20739;-70
2021/06/24 05:50:58;;;;;;;5.93;2.53;;;;;;;22.54;48.14;102075.03;5031501;28;20744;-71
2021/06/24 05:53:24;;;;;;;7.37;2.07;;;;;;;22.56;48.50;102075.88;5031096;28;20174;-72
2021/06/24 05:55:52;;;;;;;5.63;2.47;;;;;;;22.71;49.60;102086.19;5030895;28;20926;-69
2021/06/24 05:58:23;;;;;;;5.70;2.10;;;;;;;22.79;48.90;102086.97;5032499;28;20834;-69
2021/06/24 06:00:51;;;;;;;6.03;2.13;;;;;;;22.84;49.05;102085.16;5030972;28;20694;-69
2021/06/24 06:03:18;;;;;;;6.60;2.23;;;;;;;22.87;48.49;102082.50;5030462;28;20186;-71
2021/06/24 06:05:43;;;;;;;5.27;2.10;;;;;;;22.90;48.40;102083.34;5034147;28;20174;-70
2021/06/24 06:08:09;;;;;;;8.47;2.30;;;;;;;22.89;47.94;102075.53;5033716;28;20682;-67
2021/06/24 06:10:35;;;;;;;5.30;2.13;;;;;;;22.88;48.60;102081.66;5032505;28;20206;-69
2021/06/24 06:13:01;;;;;;;5.83;2.40;;;;;;;22.88;49.22;102073.81;5034019;28;20175;-70
2021/06/24 06:15:27;;;;;;;6.80;2.20;;;;;;;22.94;47.93;102077.22;5032895;28;20244;-69
2021/06/24 06:17:52;;;;;;;5.07;2.00;;;;;;;22.95;48.14;102078.94;5030143;28;20178;-70
2021/06/24 06:20:18;;;;;;;9.57;2.33;;;;;;;22.98;48.90;102078.03;5032036;28;20201;-69
2021/06/24 06:22:44;;;;;;;4.13;2.20;;;;;;;23.00;47.88;102068.41;5033233;28;20174;-69
2021/06/24 06:25:09;;;;;;;7.83;2.20;;;;;;;23.04;48.70;102071.00;5032973;28;20318;-69
2021/06/24 06:27:35;;;;;;;6.17;2.30;;;;;;;23.07;48.47;102077.94;5032443;28;20231;-68
2021/06/24 06:30:00;;;;;;;6.83;1.90;;;;;;;23.05;48.45;102079.69;5033097;28;20210;-69
2021/06/24 06:32:25;;;;;;;4.23;1.93;;;;;;;23.05;48.43;102077.06;5033393;28;20197;-70
2021/06/24 06:34:51;;;;;;;4.37;1.60;;;;;;;23.03;48.51;102074.50;5033298;28;20281;-70
2021/06/24 06:37:17;;;;;;;6.50;1.80;;;;;;;23.02;48.64;102072.75;5034541;28;20231;-70
2021/06/24 06:39:42;;;;;;;3.87;2.10;;;;;;;23.02;48.68;102074.50;5033126;28;20562;-70
2021/06/24 06:42:08;;;;;;;4.73;1.97;;;;;;;23.02;48.93;102083.19;5033515;28;20254;-71
2021/06/24 06:44:33;;;;;;;6.70;2.10;;;;;;;23.18;47.46;102082.16;5010254;28;20849;-72
2021/06/24 06:46:58;;;;;;;4.53;2.37;;;;;;;23.29;46.83;102079.44;5028146;28;20193;-72
2021/06/24 06:49:24;;;;;;;7.00;2.03;;;;;;;23.21;47.26;102089.13;5030100;28;20206;-72
2021/06/24 06:51:49;;;;;;;5.67;2.20;;;;;;;23.13;47.06;102086.56;5030495;28;20179;-71
2021/06/24 06:54:14;;;;;;;6.60;2.10;;;;;;;23.09;47.30;102084.88;5030366;28;20183;-70
2021/06/24 06:56:45;;;;;;;5.27;2.13;;;;;;;23.11;47.29;102088.31;5029576;28;20182;-71
2021/06/24 06:59:10;;;;;;;3.37;2.00;;;;;;;23.10;47.38;102091.81;5029647;28;20155;-71
2021/06/24 07:01:35;;;;;;;6.17;2.23;;;;;;;23.11;47.84;102092.69;5030037;28;20189;-71
2021/06/24 07:04:01;;;;;;;6.37;2.67;;;;;;;23.16;47.42;102104.81;5030345;28;21122;-71
2021/06/24 07:06:28;;;;;;;3.03;1.90;;;;;;;23.17;47.14;102100.47;5034364;28;20190;-72
2021/06/24 07:08:53;;;;;;;5.33;1.70;;;;;;;23.18;47.18;102096.94;5030186;28;20248;-70
2021/06/24 07:11:19;;;;;;;8.87;2.77;;;;;;;23.15;47.41;102091.78;5030205;28;20734;-71
2021/06/24 07:13:45;;;;;;;9.07;2.10;;;;;;;23.17;47.38;102095.22;5030738;28;20179;-70
2021/06/24 07:16:10;;;;;;;7.90;2.27;;;;;;;23.14;47.50;102090.03;5030239;28;20572;-70
2021/06/24 07:18:35;;;;;;;9.40;2.13;;;;;;;23.18;47.46;102090.00;5029503;28;20225;-66
2021/06/24 07:21:01;;;;;;;8.97;2.40;;;;;;;23.20;47.57;102093.47;5030101;28;20569;-69
2021/06/24 07:23:26;;;;;;;11.50;2.00;;;;;;;23.19;46.96;102083.03;5031038;28;20231;-69
2021/06/24 07:25:51;;;;;;;4.37;2.03;;;;;;;23.17;47.30;102087.38;5031022;28;20599;-70
2021/06/24 07:28:16;;;;;;;7.20;2.30;;;;;;;23.17;47.02;102093.50;5030936;28;20241;-70
2021/06/24 07:30:42;;;;;;;6.33;2.23;;;;;;;23.17;47.00;102093.50;5030155;28;20208;-70
2021/06/24 07:33:07;;;;;;;4.50;2.40;;;;;;;23.15;47.12;102095.25;5030193;28;20175;-73
2021/06/24 07:35:33;;;;;;;5.43;2.30;;;;;;;23.18;47.25;102095.22;5029042;28;20647;-72
2021/06/24 07:37:58;;;;;;;5.17;2.20;;;;;;;23.16;47.40;102093.50;5029329;28;20186;-73
2021/06/24 07:40:23;;;;;;;9.13;2.40;;;;;;;23.16;47.47;102089.13;5030109;28;20683;-70
2021/06/24 07:42:49;;;;;;;5.30;2.07;;;;;;;23.16;47.32;102088.28;5030418;28;20210;-72
2021/06/24 07:45:14;;;;;;;5.77;2.50;;;;;;;23.15;47.57;102084.78;5009432;28;20237;-71
2021/06/24 07:47:39;;;;;;;7.23;2.20;;;;;;;23.14;47.53;102087.41;5030518;28;20214;-72
2021/06/24 07:50:05;;;;;;;4.10;1.97;;;;;;;23.13;47.34;102081.34;5028920;28;20217;-72
2021/06/24 07:52:31;;;;;;;3.70;2.20;;;;;;;23.09;47.51;102079.66;5030380;28;20221;-73
2021/06/24 07:54:56;;;;;;;8.90;2.53;;;;;;;23.09;47.97;102074.41;5028879;28;20231;-72
2021/06/24 07:57:22;;;;;;;5.60;2.40;;;;;;;23.10;47.66;102070.91;5029317;28;20190;-71
2021/06/24 07:59:48;;;;;;;6.63;2.57;;;;;;;23.09;48.62;102068.31;5048695;28;20686;-72
2021/06/24 08:02:13;;;;;;;8.90;2.47;;;;;;;23.10;48.43;102059.56;5048111;28;20635;-71
2021/06/24 08:04:38;;;;;;;8.37;2.13;;;;;;;23.07;48.13;102057.88;5046448;28;20185;-72
2021/06/24 08:07:04;;;;;;;6.70;2.20;;;;;;;23.06;48.28;102056.16;5048826;28;20170;-72
2021/06/24 08:09:29;;;;;;;7.53;2.23;;;;;;;23.10;48.08;102051.72;5048989;28;20237;-72
2021/06/24 08:11:54;;;;;;;12.27;2.53;;;;;;;23.10;48.47;102055.22;5050851;28;20184;-72
2021/06/24 08:14:21;;;;;;;5.93;2.00;;;;;;;23.09;48.41;102045.66;5052950;28;20712;-72
2021/06/24 08:16:47;;;;;;;5.37;2.53;;;;;;;23.09;48.33;102043.06;5052936;28;20691;-72
2021/06/24 08:19:12;;;;;;;5.27;2.40;;;;;;;23.09;47.95;102052.63;5052706;28;20181;-72
2021/06/24 08:21:37;;;;;;;10.20;2.70;;;;;;;23.11;48.00;102048.25;5051614;28;20642;-72
2021/06/24 08:24:03;;;;;;;5.40;2.57;;;;;;;23.10;47.84;102044.78;5051526;28;20228;-72
2021/06/24 08:26:28;;;;;;;5.73;2.40;;;;;;;23.11;47.71;102048.25;5052934;28;20178;-72
2021/06/24 08:28:54;;;;;;;6.63;2.40;;;;;;;23.08;48.05;102045.69;5052285;28;20205;-71
2021/06/24 08:31:19;;;;;;;4.33;2.40;;;;;;;23.09;47.62;102045.66;5052650;28;20201;-72
2021/06/24 08:33:44;;;;;;;6.43;1.93;;;;;;;23.10;47.90;102043.88;5052681;28;20536;-71
2021/06/24 08:36:10;;;;;;;6.90;2.23;;;;;;;23.10;47.72;102036.94;5051342;28;20184;-72
2021/06/24 08:38:36;;;;;;;4.33;2.40;;;;;;;23.09;47.13;102035.22;5051380;28;20702;-70
2021/06/24 08:41:01;;;;;;;5.67;2.20;;;;;;;23.09;47.68;102027.38;5052756;28;20205;-71
2021/06/24 08:43:27;;;;;;;4.83;2.20;;;;;;;23.09;47.76;102035.22;5052489;28;20564;-70
2021/06/24 08:45:57;;;;;;;3.77;2.20;;;;;;;23.12;47.53;102042.16;5052387;28;20634;-70
2021/06/24 08:48:25;;;;;;;4.23;2.20;;;;;;;23.13;47.43;102031.66;5052282;28;20284;-73
2021/06/24 08:50:50;;;;;;;4.00;2.53;;;;;;;23.13;47.28;102029.06;5050723;28;20585;-72
2021/06/24 08:53:20;;;;;;;4.13;2.27;;;;;;;23.10;47.46;102029.09;5052341;28;20185;-72
2021/06/24 08:55:50;;;;;;;4.93;2.40;;;;;;;23.12;47.29;102029.06;5039773;28;20174;-71
2021/06/24 08:58:15;;;;;;;3.50;2.60;;;;;;;23.13;47.26;102028.19;5032060;28;20174;-71
2021/06/24 09:00:41;;;;;;;5.00;2.30;;;;;;;23.11;47.17;102035.19;5032067;28;20272;-72
2021/06/24 09:03:23;;;;;;;5.50;2.73;;;;;;;23.12;47.34;102024.72;5035983;28;20245;-72
2021/06/24 09:05:59;;;;;;;5.23;2.50;;;;;;;23.12;47.34;102019.50;5033003;28;20181;-71
2021/06/24 09:08:40;;;;;;;4.90;2.13;;;;;;;23.12;47.30;102024.72;5030521;28;20222;-72
2021/06/24 09:11:10;;;;;;;3.97;2.13;;;;;;;23.14;47.07;102022.06;5030690;28;20212;-69
2021/06/24 09:13:36;;;;;;;4.17;2.20;;;;;;;23.16;46.89;102022.94;5030840;28;20308;-71
2021/06/24 09:16:17;;;;;;;4.30;2.50;;;;;;;23.18;46.58;102016.78;5032503;28;20590;-74
2021/06/24 09:18:42;;;;;;;4.20;2.30;;;;;;;23.15;46.51;102019.44;5031754;28;20261;-72
2021/06/24 09:21:19;;;;;;;4.23;2.00;;;;;;;23.16;46.39;102018.53;5031592;28;20286;-72
2021/06/24 09:23:45;;;;;;;3.80;2.27;;;;;;;23.17;46.20;102022.03;5031342;28;20619;-72
2021/06/24 09:26:15;;;;;;;2.80;2.10;;;;;;;23.16;46.32;102012.47;5031737;28;20181;-72
2021/06/24 09:28:52;;;;;;;3.27;2.27;;;;;;;23.15;46.58;102024.66;5031556;28;20705;-72
2021/06/24 09:31:28;;;;;;;4.03;2.00;;;;;;;23.15;46.65;102016.81;5031512;28;20202;-72
2021/06/24 09:33:55;;;;;;;3.17;2.27;;;;;;;23.13;46.30;102018.59;5028722;28;20208;-73
2021/06/24 09:36:40;;;;;;;3.57;2.10;;;;;;;23.11;46.41;102019.50;5031489;28;20562;-72
2021/06/24 09:39:09;;;;;;;3.17;2.43;;;;;;;23.10;45.99;102020.38;5031485;28;20216;-71
2021/06/24 09:41:35;;;;;;;3.53;2.13;;;;;;;23.12;46.24;102021.22;5031654;28;20174;-71
2021/06/24 09:44:18;;;;;;;4.67;1.97;;;;;;;23.19;47.08;102015.94;5033908;28;20534;-69
2021/06/24 09:46:43;;;;;;;4.00;2.27;;;;;;;23.24;46.60;102018.50;5034492;28;20178;-69
2021/06/24 09:49:08;;;;;;;3.97;2.20;;;;;;;23.25;46.70;102020.22;5034374;28;20198;-69
2021/06/24 09:51:37;;;;;;;5.80;2.20;;;;;;;23.43;46.54;102015.59;5014993;28;20210;-72
2021/06/24 09:54:13;;;;;;;1.90;1.70;;;;;;;23.86;45.64;102014.06;5031555;28;20239;-69
2021/06/24 09:56:51;;;;;;;4.67;2.27;;;;;;;23.84;45.63;102015.81;5032029;28;20186;-71
2021/06/24 09:59:18;;;;;;;3.20;2.27;;;;;;;23.72;45.78;102018.66;5031254;28;20544;-71
2021/06/24 10:01:49;;;;;;;2.90;1.97;;;;;;;23.67;46.25;102022.22;5033637;28;20603;-70
2021/06/24 10:04:27;;;;;;;4.73;2.77;;;;;;;23.73;46.01;102019.50;5030249;28;20184;-71
2021/06/24 10:06:56;;;;;;;9.60;2.43;;;;;;;23.72;45.87;102016.03;5029208;28;20181;-71
2021/06/24 10:09:22;;;;;;;3.43;2.07;;;;;;;23.70;45.66;102006.44;5029724;28;20206;-71
2021/06/24 10:11:48;;;;;;;5.93;2.23;;;;;;;23.68;45.85;102011.72;5029573;28;20183;-70
2021/06/24 10:14:16;;;;;;;5.03;2.27;;;;;;;23.67;45.87;102009.13;5029740;28;20178;-71
2021/06/24 10:16:52;;;;;;;2.47;1.97;;;;;;;23.64;45.90;102006.56;5031522;28;20229;-71
2021/06/24 10:19:23;;;;;;;3.93;2.17;;;;;;;23.63;45.74;102015.28;5031435;28;20171;-70
2021/06/24 10:21:52;;;;;;;5.87;2.30;;;;;;;23.64;45.58;102003.94;5031221;28;20193;-70
2021/06/24 10:24:25;;;;;;;5.50;2.60;;;;;;;23.65;45.55;102003.91;5031338;28;20181;-70
2021/06/24 10:26:52;;;;;;;10.10;2.90;;;;;;;23.74;45.59;101995.94;5031121;28;20663;-71
2021/06/24 10:29:22;;;;;;;7.93;2.30;;;;;;;23.80;45.84;101995.81;5030723;28;20194;-71
2021/06/24 10:31:50;;;;;;;9.07;2.23;;;;;;;23.83;45.72;101992.28;5030004;28;20248;-71
2021/06/24 10:34:17;;;;;;;5.23;2.43;;;;;;;23.86;45.40;101992.25;5030519;28;20171;-70
2021/06/24 10:37:09;;;;;;;3.30;2.37;;;;;;;23.84;45.43;101991.41;5029787;28;20181;-71
2021/06/24 10:39:36;;;;;;;3.83;2.60;;;;;;;23.79;45.36;101994.09;5030929;28;20213;-71
2021/06/24 10:42:04;;;;;;;6.13;2.33;;;;;;;23.82;45.11;101990.56;5030888;28;20637;-70
2021/06/24 10:44:42;;;;;;;4.63;2.70;;;;;;;23.84;45.18;101989.66;5029103;28;20967;-71
2021/06/24 10:47:07;;;;;;;5.67;2.47;;;;;;;23.89;45.34;101986.97;5032132;28;20189;-67
2021/06/24 10:49:33;;;;;;;8.63;2.63;;;;;;;23.88;45.28;101988.72;5032627;28;20210;-67
2021/06/24 10:52:24;;;;;;;5.23;2.40;;;;;;;23.88;45.37;101975.63;5011455;28;20317;-66
2021/06/24 10:54:50;;;;;;;5.63;2.43;;;;;;;23.89;45.32;101976.50;5031467;28;20167;-67
2021/06/24 10:57:34;;;;;;;4.57;2.63;;;;;;;23.85;45.12;101973.03;5032251;28;20265;-66
2021/06/24 11:00:35;;;;;;;4.00;2.60;;;;;;;23.83;45.40;101980.06;5030469;28;20248;-66
2021/06/24 11:03:01;;;;;;;4.20;2.00;;;;;;;23.83;45.24;101976.59;5037324;28;20190;-67
2021/06/24 11:05:40;;;;;;;3.53;2.47;;;;;;;23.85;45.29;101973.03;5033763;28;20182;-66
2021/06/24 11:08:16;;;;;;;2.60;2.37;;;;;;;23.86;45.26;101971.31;5030899;28;20212;-66
2021/06/24 11:10:53;;;;;;;3.03;2.07;;;;;;;23.90;45.38;101973.88;5031200;28;20228;-66
2021/06/24 11:13:41;;;;;;;3.10;2.40;;;;;;;23.93;45.17;101971.22;5032728;28;20265;-66
2021/06/24 11:16:07;;;;;;;2.90;2.33;;;;;;;23.99;44.91;101952.78;5033064;28;20181;-66
2021/06/24 11:18:35;;;;;;;2.97;2.20;;;;;;;24.02;44.65;101960.56;5032005;28;20182;-66
2021/06/24 11:21:02;;;;;;;6.27;2.57;;;;;;;23.95;44.75;101961.59;5030063;28;20220;-67
2021/06/24 11:23:49;;;;;;;3.40;2.33;;;;;;;24.01;44.65;101953.63;5034875;28;20181;-66